sensor_id;sensor_type;location;lat;lon;timestamp;P1;durP1;ratioP1;P2;durP2;ratioP2
34828;SDS011;21042;47.620;12.188;2022-11-20T00:01:27;5.95;;;3.25;;
34828;SDS011;21042;47.620;12.188;2022-11-20T00:03:56;5.20;;;3.13;;
34828;SDS011;21042;47.620;12.188;2022-11-20T00:06:24;5.32;;;2.60;;
34828;SDS011;21042;47.620;12.188;2022-11-20T00:08:53;3.38;;;2.17;;
34828;SDS011;21042;47.620;12.188;2022-11-20T00:11:22;5.90;;;2.38;;
34828;SDS011;21042;47.620;12.188;2022-11-20T00:13:51;7.57;;;2.47;;
34828;SDS011;21042;47.620;12.188;2022-11-20T00:16:21;6.32;;;2.80;;
34828;SDS011;21042;47.620;12.188;2022-11-20T00:18:49;5.13;;;2.72;;
34828;SDS011;21042;47.620;12.188;2022-11-20T00:21:23;3.53;;;1.88;;
34828;SDS011;21042;47.620;12.188;2022-11-20T00:23:53;4.90;;;2.58;;
34828;SDS011;21042;47.620;12.188;2022-11-20T00:26:21;8.63;;;2.25;;
34828;SDS011;21042;47.620;12.188;2022-11-20T00:28:49;7.13;;;3.08;;
34828;SDS011;21042;47.620;12.188;2022-11-20T00:31:18;4.20;;;2.38;;
34828;SDS011;21042;47.620;12.188;2022-11-20T00:33:45;5.28;;;2.60;;
34828;SDS011;21042;47.620;12.188;2022-11-20T00:36:14;4.68;;;2.63;;
34828;SDS011;21042;47.620;12.188;2022-11-20T00:38:42;5.85;;;3.00;;
34828;SDS011;21042;47.620;12.188;2022-11-20T00:41:11;10.90;;;3.83;;
34828;SDS011;21042;47.620;12.188;2022-11-20T00:43:42;5.60;;;3.60;;
34828;SDS011;21042;47.620;12.188;2022-11-20T00:46:10;4.55;;;3.22;;
34828;SDS011;21042;47.620;12.188;2022-11-20T00:48:40;5.45;;;3.00;;
34828;SDS011;21042;47.620;12.188;2022-11-20T00:51:07;4.47;;;2.80;;
34828;SDS011;21042;47.620;12.188;2022-11-20T00:53:34;5.55;;;3.25;;
34828;SDS011;21042;47.620;12.188;2022-11-20T00:56:02;5.80;;;3.58;;
34828;SDS011;21042;47.620;12.188;2022-11-20T00:58:32;8.40;;;3.35;;
34828;SDS011;21042;47.620;12.188;2022-11-20T01:01:01;7.95;;;2.83;;
34828;SDS011;21042;47.620;12.188;2022-11-20T01:03:30;10.20;;;3.60;;
34828;SDS011;21042;47.620;12.188;2022-11-20T01:06:01;8.23;;;3.00;;
34828;SDS011;21042;47.620;12.188;2022-11-20T01:08:30;6.13;;;3.70;;
34828;SDS011;21042;47.620;12.188;2022-11-20T01:11:11;6.00;;;3.28;;
34828;SDS011;21042;47.620;12.188;2022-11-20T01:13:40;4.25;;;2.60;;
34828;SDS011;21042;47.620;12.188;2022-11-20T01:16:12;5.72;;;2.88;;
34828;SDS011;21042;47.620;12.188;2022-11-20T01:18:41;6.97;;;3.03;;
34828;SDS011;21042;47.620;12.188;2022-11-20T01:21:13;4.22;;;2.80;;
34828;SDS011;21042;47.620;12.188;2022-11-20T01:23:42;4.40;;;2.55;;
34828;SDS011;21042;47.620;12.188;2022-11-20T01:26:14;4.97;;;2.47;;
34828;SDS011;21042;47.620;12.188;2022-11-20T01:28:42;6.82;;;3.03;;
34828;SDS011;21042;47.620;12.188;2022-11-20T01:31:10;4.00;;;3.00;;
34828;SDS011;21042;47.620;12.188;2022-11-20T01:33:40;4.47;;;2.55;;
34828;SDS011;21042;47.620;12.188;2022-11-20T01:36:08;8.98;;;2.88;;
34828;SDS011;21042;47.620;12.188;2022-11-20T01:38:36;7.03;;;3.38;;
34828;SDS011;21042;47.620;12.188;2022-11-20T01:41:03;12.15;;;4.50;;
34828;SDS011;21042;47.620;12.188;2022-11-20T01:43:30;10.35;;;5.68;;
34828;SDS011;21042;47.620;12.188;2022-11-20T01:46:16;5.40;;;3.88;;
34828;SDS011;21042;47.620;12.188;2022-11-20T01:51:29;7.85;;;4.50;;
34828;SDS011;21042;47.620;12.188;2022-11-20T01:53:58;9.40;;;4.63;;
34828;SDS011;21042;47.620;12.188;2022-11-20T01:56:29;8.00;;;4.00;;
34828;SDS011;21042;47.620;12.188;2022-11-20T01:59:00;6.15;;;3.97;;
34828;SDS011;21042;47.620;12.188;2022-11-20T02:01:28;10.88;;;3.75;;
34828;SDS011;21042;47.620;12.188;2022-11-20T02:03:55;6.82;;;2.95;;
34828;SDS011;21042;47.620;12.188;2022-11-20T02:06:26;5.28;;;3.00;;
34828;SDS011;21042;47.620;12.188;2022-11-20T02:09:00;3.40;;;2.35;;
34828;SDS011;21042;47.620;12.188;2022-11-20T02:11:26;6.97;;;2.55;;
34828;SDS011;21042;47.620;12.188;2022-11-20T02:13:55;6.60;;;2.63;;
34828;SDS011;21042;47.620;12.188;2022-11-20T02:16:26;4.85;;;2.60;;
34828;SDS011;21042;47.620;12.188;2022-11-20T02:18:56;6.00;;;3.22;;
34828;SDS011;21042;47.620;12.188;2022-11-20T02:24:04;4.50;;;2.45;;
34828;SDS011;21042;47.620;12.188;2022-11-20T02:26:38;4.28;;;2.72;;
34828;SDS011;21042;47.620;12.188;2022-11-20T02:29:45;5.10;;;1.98;;
34828;SDS011;21042;47.620;12.188;2022-11-20T02:32:32;3.90;;;2.25;;
34828;SDS011;21042;47.620;12.188;2022-11-20T02:35:38;5.35;;;2.45;;
34828;SDS011;21042;47.620;12.188;2022-11-20T02:37:59;7.10;;;2.47;;
34828;SDS011;21042;47.620;12.188;2022-11-20T02:40:28;4.20;;;2.42;;
34828;SDS011;21042;47.620;12.188;2022-11-20T02:42:55;6.90;;;2.90;;
34828;SDS011;21042;47.620;12.188;2022-11-20T02:45:23;8.35;;;3.10;;
34828;SDS011;21042;47.620;12.188;2022-11-20T02:47:51;4.30;;;2.63;;
34828;SDS011;21042;47.620;12.188;2022-11-20T02:50:18;6.80;;;3.55;;
34828;SDS011;21042;47.620;12.188;2022-11-20T02:52:45;6.82;;;3.13;;
34828;SDS011;21042;47.620;12.188;2022-11-20T02:55:12;5.03;;;3.00;;
34828;SDS011;21042;47.620;12.188;2022-11-20T02:57:38;6.75;;;2.63;;
34828;SDS011;21042;47.620;12.188;2022-11-20T03:00:06;4.95;;;3.17;;
34828;SDS011;21042;47.620;12.188;2022-11-20T03:05:00;5.53;;;3.53;;
34828;SDS011;21042;47.620;12.188;2022-11-20T03:07:26;5.90;;;3.70;;
34828;SDS011;21042;47.620;12.188;2022-11-20T03:09:53;7.60;;;4.32;;
34828;SDS011;21042;47.620;12.188;2022-11-20T03:12:20;9.23;;;5.15;;
34828;SDS011;21042;47.620;12.188;2022-11-20T03:14:47;8.63;;;5.47;;
34828;SDS011;21042;47.620;12.188;2022-11-20T03:17:18;8.40;;;5.60;;
34828;SDS011;21042;47.620;12.188;2022-11-20T03:19:45;7.45;;;3.63;;
34828;SDS011;21042;47.620;12.188;2022-11-20T03:22:12;9.88;;;5.20;;
34828;SDS011;21042;47.620;12.188;2022-11-20T03:24:38;7.13;;;4.47;;
34828;SDS011;21042;47.620;12.188;2022-11-20T03:27:05;3.20;;;2.05;;
34828;SDS011;21042;47.620;12.188;2022-11-20T03:29:32;2.70;;;1.70;;
34828;SDS011;21042;47.620;12.188;2022-11-20T03:31:58;2.03;;;1.30;;
34828;SDS011;21042;47.620;12.188;2022-11-20T03:34:25;2.15;;;1.27;;
34828;SDS011;21042;47.620;12.188;2022-11-20T03:36:52;2.03;;;1.08;;
34828;SDS011;21042;47.620;12.188;2022-11-20T03:39:18;2.38;;;1.10;;
34828;SDS011;21042;47.620;12.188;2022-11-20T03:41:45;3.33;;;1.00;;
34828;SDS011;21042;47.620;12.188;2022-11-20T03:44:12;1.63;;;1.25;;
34828;SDS011;21042;47.620;12.188;2022-11-20T03:46:39;3.30;;;1.05;;
34828;SDS011;21042;47.620;12.188;2022-11-20T03:49:06;1.40;;;0.95;;
34828;SDS011;21042;47.620;12.188;2022-11-20T03:51:33;1.23;;;0.80;;
34828;SDS011;21042;47.620;12.188;2022-11-20T03:54:03;1.15;;;0.88;;
34828;SDS011;21042;47.620;12.188;2022-11-20T03:56:33;2.53;;;1.30;;
34828;SDS011;21042;47.620;12.188;2022-11-20T03:59:02;2.78;;;1.13;;
34828;SDS011;21042;47.620;12.188;2022-11-20T04:01:34;2.83;;;1.27;;
34828;SDS011;21042;47.620;12.188;2022-11-20T04:04:03;2.88;;;2.15;;
34828;SDS011;21042;47.620;12.188;2022-11-20T04:06:33;2.03;;;1.52;;
34828;SDS011;21042;47.620;12.188;2022-11-20T04:09:02;1.40;;;1.15;;
34828;SDS011;21042;47.620;12.188;2022-11-20T04:11:30;1.40;;;1.00;;
34828;SDS011;21042;47.620;12.188;2022-11-20T04:13:59;2.92;;;1.88;;
34828;SDS011;21042;47.620;12.188;2022-11-20T04:16:29;4.80;;;1.65;;
34828;SDS011;21042;47.620;12.188;2022-11-20T04:18:58;4.07;;;1.65;;
34828;SDS011;21042;47.620;12.188;2022-11-20T04:21:27;3.13;;;1.55;;
34828;SDS011;21042;47.620;12.188;2022-11-20T04:23:54;3.92;;;0.90;;
34828;SDS011;21042;47.620;12.188;2022-11-20T04:26:22;1.35;;;0.80;;
34828;SDS011;21042;47.620;12.188;2022-11-20T04:28:50;1.80;;;1.10;;
34828;SDS011;21042;47.620;12.188;2022-11-20T04:31:18;3.45;;;1.63;;
34828;SDS011;21042;47.620;12.188;2022-11-20T04:33:47;3.25;;;1.90;;
34828;SDS011;21042;47.620;12.188;2022-11-20T04:36:23;3.45;;;1.70;;
34828;SDS011;21042;47.620;12.188;2022-11-20T04:38:52;4.68;;;2.50;;
34828;SDS011;21042;47.620;12.188;2022-11-20T04:41:23;3.78;;;2.30;;
34828;SDS011;21042;47.620;12.188;2022-11-20T04:43:53;5.93;;;3.08;;
34828;SDS011;21042;47.620;12.188;2022-11-20T04:46:31;4.97;;;1.60;;
34828;SDS011;21042;47.620;12.188;2022-11-20T04:49:04;1.33;;;1.05;;
34828;SDS011;21042;47.620;12.188;2022-11-20T04:51:31;1.67;;;0.90;;
34828;SDS011;21042;47.620;12.188;2022-11-20T04:53:58;1.10;;;0.90;;
34828;SDS011;21042;47.620;12.188;2022-11-20T04:56:25;2.90;;;1.30;;
34828;SDS011;21042;47.620;12.188;2022-11-20T04:58:52;4.28;;;1.33;;
34828;SDS011;21042;47.620;12.188;2022-11-20T05:01:20;2.42;;;0.85;;
34828;SDS011;21042;47.620;12.188;2022-11-20T05:03:48;3.03;;;1.13;;
34828;SDS011;21042;47.620;12.188;2022-11-20T05:06:16;2.25;;;0.75;;
34828;SDS011;21042;47.620;12.188;2022-11-20T05:08:44;4.80;;;2.25;;
34828;SDS011;21042;47.620;12.188;2022-11-20T05:11:12;3.53;;;1.08;;
34828;SDS011;21042;47.620;12.188;2022-11-20T05:13:40;3.83;;;0.70;;
34828;SDS011;21042;47.620;12.188;2022-11-20T05:16:09;3.10;;;0.88;;
34828;SDS011;21042;47.620;12.188;2022-11-20T05:18:38;1.02;;;0.63;;
34828;SDS011;21042;47.620;12.188;2022-11-20T05:21:05;1.30;;;0.63;;
34828;SDS011;21042;47.620;12.188;2022-11-20T05:23:33;2.20;;;0.68;;
34828;SDS011;21042;47.620;12.188;2022-11-20T05:26:00;0.85;;;0.52;;
34828;SDS011;21042;47.620;12.188;2022-11-20T05:28:28;0.68;;;0.50;;
34828;SDS011;21042;47.620;12.188;2022-11-20T05:30:55;2.38;;;0.70;;
34828;SDS011;21042;47.620;12.188;2022-11-20T05:33:29;1.23;;;0.55;;
34828;SDS011;21042;47.620;12.188;2022-11-20T05:35:59;1.63;;;1.08;;
34828;SDS011;21042;47.620;12.188;2022-11-20T05:38:25;2.80;;;0.98;;
34828;SDS011;21042;47.620;12.188;2022-11-20T05:40:52;1.15;;;0.68;;
34828;SDS011;21042;47.620;12.188;2022-11-20T05:43:19;0.93;;;0.70;;
34828;SDS011;21042;47.620;12.188;2022-11-20T05:45:55;1.13;;;0.60;;
34828;SDS011;21042;47.620;12.188;2022-11-20T05:48:21;1.55;;;1.10;;
34828;SDS011;21042;47.620;12.188;2022-11-20T05:50:48;2.45;;;1.48;;
34828;SDS011;21042;47.620;12.188;2022-11-20T05:53:15;3.20;;;1.30;;
34828;SDS011;21042;47.620;12.188;2022-11-20T05:55:42;7.60;;;2.40;;
34828;SDS011;21042;47.620;12.188;2022-11-20T05:58:08;4.15;;;2.25;;
34828;SDS011;21042;47.620;12.188;2022-11-20T06:00:35;4.70;;;1.63;;
34828;SDS011;21042;47.620;12.188;2022-11-20T06:03:02;1.33;;;0.50;;
34828;SDS011;21042;47.620;12.188;2022-11-20T06:05:29;2.47;;;0.55;;
34828;SDS011;21042;47.620;12.188;2022-11-20T06:07:56;2.05;;;0.88;;
34828;SDS011;21042;47.620;12.188;2022-11-20T06:10:23;3.47;;;1.63;;
34828;SDS011;21042;47.620;12.188;2022-11-20T06:12:49;3.13;;;2.05;;
34828;SDS011;21042;47.620;12.188;2022-11-20T06:15:16;2.35;;;0.93;;
34828;SDS011;21042;47.620;12.188;2022-11-20T06:17:43;5.47;;;1.48;;
34828;SDS011;21042;47.620;12.188;2022-11-20T06:20:10;0.88;;;0.60;;
34828;SDS011;21042;47.620;12.188;2022-11-20T06:22:36;2.58;;;1.17;;
34828;SDS011;21042;47.620;12.188;2022-11-20T06:25:03;1.70;;;0.98;;
34828;SDS011;21042;47.620;12.188;2022-11-20T06:27:30;2.03;;;0.90;;
34828;SDS011;21042;47.620;12.188;2022-11-20T06:29:57;2.42;;;0.90;;
34828;SDS011;21042;47.620;12.188;2022-11-20T06:35:02;2.78;;;1.40;;
34828;SDS011;21042;47.620;12.188;2022-11-20T06:37:29;3.20;;;1.70;;
34828;SDS011;21042;47.620;12.188;2022-11-20T06:39:56;1.35;;;1.10;;
34828;SDS011;21042;47.620;12.188;2022-11-20T06:42:22;1.23;;;0.80;;
34828;SDS011;21042;47.620;12.188;2022-11-20T06:44:49;2.35;;;1.30;;
34828;SDS011;21042;47.620;12.188;2022-11-20T06:47:16;2.13;;;0.80;;
34828;SDS011;21042;47.620;12.188;2022-11-20T06:49:42;1.85;;;0.88;;
34828;SDS011;21042;47.620;12.188;2022-11-20T06:52:09;4.82;;;0.90;;
34828;SDS011;21042;47.620;12.188;2022-11-20T06:54:36;1.35;;;0.80;;
34828;SDS011;21042;47.620;12.188;2022-11-20T06:57:02;1.65;;;1.00;;
34828;SDS011;21042;47.620;12.188;2022-11-20T06:59:29;1.30;;;1.17;;
34828;SDS011;21042;47.620;12.188;2022-11-20T07:01:56;3.75;;;1.30;;
34828;SDS011;21042;47.620;12.188;2022-11-20T07:04:22;2.67;;;1.20;;
34828;SDS011;21042;47.620;12.188;2022-11-20T07:06:49;1.63;;;1.33;;
34828;SDS011;21042;47.620;12.188;2022-11-20T07:09:16;2.13;;;1.25;;
34828;SDS011;21042;47.620;12.188;2022-11-20T07:11:43;1.60;;;1.20;;
34828;SDS011;21042;47.620;12.188;2022-11-20T07:14:10;2.30;;;1.50;;
34828;SDS011;21042;47.620;12.188;2022-11-20T07:16:37;1.27;;;1.08;;
34828;SDS011;21042;47.620;12.188;2022-11-20T07:19:03;3.00;;;1.77;;
34828;SDS011;21042;47.620;12.188;2022-11-20T07:21:30;1.95;;;1.23;;
34828;SDS011;21042;47.620;12.188;2022-11-20T07:23:57;4.47;;;1.90;;
34828;SDS011;21042;47.620;12.188;2022-11-20T07:26:23;1.48;;;0.95;;
34828;SDS011;21042;47.620;12.188;2022-11-20T07:28:50;4.85;;;2.55;;
34828;SDS011;21042;47.620;12.188;2022-11-20T07:31:17;8.43;;;2.60;;
34828;SDS011;21042;47.620;12.188;2022-11-20T07:33:45;2.13;;;1.27;;
34828;SDS011;21042;47.620;12.188;2022-11-20T07:36:12;2.50;;;1.55;;
34828;SDS011;21042;47.620;12.188;2022-11-20T07:38:38;2.78;;;1.75;;
34828;SDS011;21042;47.620;12.188;2022-11-20T07:41:05;4.90;;;2.92;;
34828;SDS011;21042;47.620;12.188;2022-11-20T07:43:32;1.88;;;1.00;;
34828;SDS011;21042;47.620;12.188;2022-11-20T07:46:06;2.17;;;1.73;;
34828;SDS011;21042;47.620;12.188;2022-11-20T07:48:32;4.00;;;2.45;;
34828;SDS011;21042;47.620;12.188;2022-11-20T07:50:59;4.85;;;4.28;;
34828;SDS011;21042;47.620;12.188;2022-11-20T07:53:26;7.85;;;4.55;;
34828;SDS011;21042;47.620;12.188;2022-11-20T07:55:52;9.15;;;5.00;;
34828;SDS011;21042;47.620;12.188;2022-11-20T07:58:20;26.17;;;10.82;;
34828;SDS011;21042;47.620;12.188;2022-11-20T08:00:47;17.38;;;7.13;;
34828;SDS011;21042;47.620;12.188;2022-11-20T08:03:14;16.13;;;7.05;;
34828;SDS011;21042;47.620;12.188;2022-11-20T08:05:46;18.10;;;9.73;;
34828;SDS011;21042;47.620;12.188;2022-11-20T08:08:13;13.88;;;6.93;;
34828;SDS011;21042;47.620;12.188;2022-11-20T08:10:40;10.63;;;6.00;;
34828;SDS011;21042;47.620;12.188;2022-11-20T08:13:08;9.80;;;6.22;;
34828;SDS011;21042;47.620;12.188;2022-11-20T08:15:53;12.88;;;6.82;;
34828;SDS011;21042;47.620;12.188;2022-11-20T08:18:20;11.55;;;6.13;;
34828;SDS011;21042;47.620;12.188;2022-11-20T08:21:03;11.18;;;4.30;;
34828;SDS011;21042;47.620;12.188;2022-11-20T08:23:30;8.35;;;4.60;;
34828;SDS011;21042;47.620;12.188;2022-11-20T08:25:57;7.80;;;3.80;;
34828;SDS011;21042;47.620;12.188;2022-11-20T08:28:24;3.22;;;2.00;;
34828;SDS011;21042;47.620;12.188;2022-11-20T08:30:51;3.13;;;1.70;;
34828;SDS011;21042;47.620;12.188;2022-11-20T08:33:23;3.13;;;2.05;;
34828;SDS011;21042;47.620;12.188;2022-11-20T08:35:49;5.20;;;3.40;;
34828;SDS011;21042;47.620;12.188;2022-11-20T08:38:16;4.28;;;2.85;;
34828;SDS011;21042;47.620;12.188;2022-11-20T08:40:43;5.10;;;3.22;;
34828;SDS011;21042;47.620;12.188;2022-11-20T08:43:32;8.57;;;3.67;;
34828;SDS011;21042;47.620;12.188;2022-11-20T08:45:59;8.38;;;4.68;;
34828;SDS011;21042;47.620;12.188;2022-11-20T08:48:26;10.85;;;5.30;;
34828;SDS011;21042;47.620;12.188;2022-11-20T08:50:53;12.35;;;5.05;;
34828;SDS011;21042;47.620;12.188;2022-11-20T08:53:23;11.10;;;6.15;;
34828;SDS011;21042;47.620;12.188;2022-11-20T08:55:50;9.63;;;5.55;;
34828;SDS011;21042;47.620;12.188;2022-11-20T08:58:16;10.73;;;5.13;;
34828;SDS011;21042;47.620;12.188;2022-11-20T09:00:43;8.07;;;4.50;;
34828;SDS011;21042;47.620;12.188;2022-11-20T09:03:10;4.03;;;2.85;;
34828;SDS011;21042;47.620;12.188;2022-11-20T09:05:37;5.07;;;3.30;;
34828;SDS011;21042;47.620;12.188;2022-11-20T09:08:04;5.00;;;3.60;;
34828;SDS011;21042;47.620;12.188;2022-11-20T09:10:30;7.00;;;3.83;;
34828;SDS011;21042;47.620;12.188;2022-11-20T09:12:58;4.70;;;3.28;;
34828;SDS011;21042;47.620;12.188;2022-11-20T09:15:25;6.65;;;2.95;;
34828;SDS011;21042;47.620;12.188;2022-11-20T09:17:52;6.22;;;3.40;;
34828;SDS011;21042;47.620;12.188;2022-11-20T09:20:20;4.35;;;2.83;;
34828;SDS011;21042;47.620;12.188;2022-11-20T09:22:48;5.45;;;3.47;;
34828;SDS011;21042;47.620;12.188;2022-11-20T09:25:14;11.43;;;3.88;;
34828;SDS011;21042;47.620;12.188;2022-11-20T09:27:41;9.68;;;4.95;;
34828;SDS011;21042;47.620;12.188;2022-11-20T09:30:10;10.35;;;6.07;;
34828;SDS011;21042;47.620;12.188;2022-11-20T09:32:40;11.18;;;6.30;;
34828;SDS011;21042;47.620;12.188;2022-11-20T09:35:10;9.95;;;5.78;;
34828;SDS011;21042;47.620;12.188;2022-11-20T09:40:04;8.82;;;5.93;;
34828;SDS011;21042;47.620;12.188;2022-11-20T09:42:45;11.55;;;6.55;;
34828;SDS011;21042;47.620;12.188;2022-11-20T09:51:08;10.25;;;6.05;;
34828;SDS011;21042;47.620;12.188;2022-11-20T09:54:18;10.18;;;5.97;;
34828;SDS011;21042;47.620;12.188;2022-11-20T09:56:47;9.40;;;5.55;;
34828;SDS011;21042;47.620;12.188;2022-11-20T09:59:33;9.82;;;4.97;;
34828;SDS011;21042;47.620;12.188;2022-11-20T10:02:12;7.95;;;4.43;;
34828;SDS011;21042;47.620;12.188;2022-11-20T10:05:33;5.78;;;4.10;;
34828;SDS011;21042;47.620;12.188;2022-11-20T10:07:55;8.73;;;5.10;;
34828;SDS011;21042;47.620;12.188;2022-11-20T10:13:33;6.22;;;4.25;;
34828;SDS011;21042;47.620;12.188;2022-11-20T10:27:55;5.93;;;3.67;;
34828;SDS011;21042;47.620;12.188;2022-11-20T10:30:35;5.95;;;3.80;;
34828;SDS011;21042;47.620;12.188;2022-11-20T10:33:08;8.98;;;5.22;;
34828;SDS011;21042;47.620;12.188;2022-11-20T10:35:50;11.50;;;4.57;;
34828;SDS011;21042;47.620;12.188;2022-11-20T10:38:46;11.65;;;5.45;;
34828;SDS011;21042;47.620;12.188;2022-11-20T10:41:17;6.22;;;4.38;;
34828;SDS011;21042;47.620;12.188;2022-11-20T10:47:11;8.57;;;4.50;;
34828;SDS011;21042;47.620;12.188;2022-11-20T10:49:43;7.97;;;4.80;;
34828;SDS011;21042;47.620;12.188;2022-11-20T10:54:49;10.43;;;4.25;;
34828;SDS011;21042;47.620;12.188;2022-11-20T11:00:12;3.45;;;2.10;;
34828;SDS011;21042;47.620;12.188;2022-11-20T11:07:51;8.55;;;5.00;;
34828;SDS011;21042;47.620;12.188;2022-11-20T11:10:23;8.55;;;4.43;;
34828;SDS011;21042;47.620;12.188;2022-11-20T11:12:54;4.70;;;2.92;;
34828;SDS011;21042;47.620;12.188;2022-11-20T11:15:25;3.35;;;2.03;;
34828;SDS011;21042;47.620;12.188;2022-11-20T11:18:22;6.07;;;3.10;;
34828;SDS011;21042;47.620;12.188;2022-11-20T11:20:50;3.92;;;2.53;;
34828;SDS011;21042;47.620;12.188;2022-11-20T11:26:05;8.38;;;4.13;;
34828;SDS011;21042;47.620;12.188;2022-11-20T11:28:56;13.00;;;5.40;;
34828;SDS011;21042;47.620;12.188;2022-11-20T11:31:25;7.32;;;3.75;;
34828;SDS011;21042;47.620;12.188;2022-11-20T11:34:12;7.38;;;3.28;;
34828;SDS011;21042;47.620;12.188;2022-11-20T11:36:41;3.55;;;2.38;;
34828;SDS011;21042;47.620;12.188;2022-11-20T11:39:14;4.57;;;2.60;;
34828;SDS011;21042;47.620;12.188;2022-11-20T11:41:43;4.53;;;2.85;;
34828;SDS011;21042;47.620;12.188;2022-11-20T11:47:02;4.63;;;2.13;;
34828;SDS011;21042;47.620;12.188;2022-11-20T11:49:31;2.83;;;2.10;;
34828;SDS011;21042;47.620;12.188;2022-11-20T11:52:17;3.55;;;1.85;;
34828;SDS011;21042;47.620;12.188;2022-11-20T12:05:23;8.13;;;4.50;;
34828;SDS011;21042;47.620;12.188;2022-11-20T12:07:57;7.18;;;3.97;;
34828;SDS011;21042;47.620;12.188;2022-11-20T12:15:59;4.60;;;3.22;;
34828;SDS011;21042;47.620;12.188;2022-11-20T12:18:27;4.93;;;3.40;;
34828;SDS011;21042;47.620;12.188;2022-11-20T12:21:41;6.35;;;3.72;;
34828;SDS011;21042;47.620;12.188;2022-11-20T12:24:08;6.60;;;4.05;;
34828;SDS011;21042;47.620;12.188;2022-11-20T12:34:52;6.15;;;3.95;;
34828;SDS011;21042;47.620;12.188;2022-11-20T12:37:48;10.90;;;5.47;;
34828;SDS011;21042;47.620;12.188;2022-11-20T12:43:33;4.85;;;3.08;;
34828;SDS011;21042;47.620;12.188;2022-11-20T12:47:10;5.30;;;2.22;;
34828;SDS011;21042;47.620;12.188;2022-11-20T13:00:30;3.00;;;1.77;;
34828;SDS011;21042;47.620;12.188;2022-11-20T13:07:13;5.22;;;2.65;;
34828;SDS011;21042;47.620;12.188;2022-11-20T13:09:46;7.05;;;3.28;;
34828;SDS011;21042;47.620;12.188;2022-11-20T13:17:56;5.22;;;2.05;;
34828;SDS011;21042;47.620;12.188;2022-11-20T13:20:26;1.58;;;1.20;;
34828;SDS011;21042;47.620;12.188;2022-11-20T13:22:55;5.35;;;2.50;;
34828;SDS011;21042;47.620;12.188;2022-11-20T13:25:26;4.65;;;2.22;;
34828;SDS011;21042;47.620;12.188;2022-11-20T13:28:03;5.72;;;2.67;;
34828;SDS011;21042;47.620;12.188;2022-11-20T13:30:51;5.05;;;2.50;;
34828;SDS011;21042;47.620;12.188;2022-11-20T13:36:00;2.78;;;2.10;;
34828;SDS011;21042;47.620;12.188;2022-11-20T13:38:46;7.30;;;4.05;;
34828;SDS011;21042;47.620;12.188;2022-11-20T13:44:09;5.00;;;3.28;;
34828;SDS011;21042;47.620;12.188;2022-11-20T13:46:52;4.95;;;2.70;;
34828;SDS011;21042;47.620;12.188;2022-11-20T13:49:32;6.30;;;3.58;;
34828;SDS011;21042;47.620;12.188;2022-11-20T14:02:50;7.22;;;3.65;;
34828;SDS011;21042;47.620;12.188;2022-11-20T14:05:25;14.52;;;7.20;;
34828;SDS011;21042;47.620;12.188;2022-11-20T14:07:52;14.27;;;6.15;;
34828;SDS011;21042;47.620;12.188;2022-11-20T14:10:22;14.98;;;6.38;;
34828;SDS011;21042;47.620;12.188;2022-11-20T14:12:58;7.80;;;4.90;;
34828;SDS011;21042;47.620;12.188;2022-11-20T14:15:29;9.20;;;4.60;;
34828;SDS011;21042;47.620;12.188;2022-11-20T14:17:58;9.30;;;4.22;;
34828;SDS011;21042;47.620;12.188;2022-11-20T14:20:26;6.78;;;3.78;;
34828;SDS011;21042;47.620;12.188;2022-11-20T14:22:57;8.25;;;4.00;;
34828;SDS011;21042;47.620;12.188;2022-11-20T14:25:25;5.05;;;2.50;;
34828;SDS011;21042;47.620;12.188;2022-11-20T14:27:57;5.45;;;3.03;;
34828;SDS011;21042;47.620;12.188;2022-11-20T14:30:26;3.42;;;2.30;;
34828;SDS011;21042;47.620;12.188;2022-11-20T14:32:57;7.80;;;3.38;;
34828;SDS011;21042;47.620;12.188;2022-11-20T14:35:30;5.43;;;2.90;;
34828;SDS011;21042;47.620;12.188;2022-11-20T14:38:01;5.90;;;2.60;;
34828;SDS011;21042;47.620;12.188;2022-11-20T14:43:23;7.63;;;3.75;;
34828;SDS011;21042;47.620;12.188;2022-11-20T14:46:05;8.40;;;4.03;;
34828;SDS011;21042;47.620;12.188;2022-11-20T14:48:37;5.72;;;3.28;;
34828;SDS011;21042;47.620;12.188;2022-11-20T14:51:11;5.95;;;3.45;;
34828;SDS011;21042;47.620;12.188;2022-11-20T14:53:49;4.93;;;3.13;;
34828;SDS011;21042;47.620;12.188;2022-11-20T14:56:21;8.70;;;4.40;;
34828;SDS011;21042;47.620;12.188;2022-11-20T14:58:55;6.65;;;4.30;;
34828;SDS011;21042;47.620;12.188;2022-11-20T15:01:27;7.25;;;4.47;;
34828;SDS011;21042;47.620;12.188;2022-11-20T15:04:08;5.32;;;2.80;;
34828;SDS011;21042;47.620;12.188;2022-11-20T15:06:36;6.15;;;3.17;;
34828;SDS011;21042;47.620;12.188;2022-11-20T15:09:04;4.07;;;2.28;;
34828;SDS011;21042;47.620;12.188;2022-11-20T15:11:39;5.35;;;3.00;;
34828;SDS011;21042;47.620;12.188;2022-11-20T15:14:16;3.03;;;1.98;;
34828;SDS011;21042;47.620;12.188;2022-11-20T15:16:43;3.53;;;1.55;;
34828;SDS011;21042;47.620;12.188;2022-11-20T15:19:13;3.88;;;1.77;;
34828;SDS011;21042;47.620;12.188;2022-11-20T15:21:45;2.17;;;1.25;;
34828;SDS011;21042;47.620;12.188;2022-11-20T15:24:12;2.30;;;1.33;;
34828;SDS011;21042;47.620;12.188;2022-11-20T15:26:39;2.78;;;0.85;;
34828;SDS011;21042;47.620;12.188;2022-11-20T15:29:10;1.10;;;0.85;;
34828;SDS011;21042;47.620;12.188;2022-11-20T15:31:38;1.90;;;0.60;;
34828;SDS011;21042;47.620;12.188;2022-11-20T15:34:12;3.83;;;0.68;;
34828;SDS011;21042;47.620;12.188;2022-11-20T15:36:40;0.52;;;0.50;;
34828;SDS011;21042;47.620;12.188;2022-11-20T15:39:08;2.58;;;0.90;;
34828;SDS011;21042;47.620;12.188;2022-11-20T15:41:35;0.98;;;0.68;;
34828;SDS011;21042;47.620;12.188;2022-11-20T15:44:03;1.13;;;0.60;;
34828;SDS011;21042;47.620;12.188;2022-11-20T15:46:31;0.95;;;0.68;;
34828;SDS011;21042;47.620;12.188;2022-11-20T15:49:04;1.92;;;0.80;;
34828;SDS011;21042;47.620;12.188;2022-11-20T15:54:00;1.58;;;0.88;;
34828;SDS011;21042;47.620;12.188;2022-11-20T15:56:28;1.40;;;0.80;;
34828;SDS011;21042;47.620;12.188;2022-11-20T16:01:22;3.53;;;1.08;;
34828;SDS011;21042;47.620;12.188;2022-11-20T16:03:48;1.88;;;0.85;;
34828;SDS011;21042;47.620;12.188;2022-11-20T16:06:15;1.73;;;0.88;;
34828;SDS011;21042;47.620;12.188;2022-11-20T16:08:42;1.60;;;1.15;;
34828;SDS011;21042;47.620;12.188;2022-11-20T16:11:12;1.38;;;0.95;;
34828;SDS011;21042;47.620;12.188;2022-11-20T16:13:41;0.75;;;0.70;;
34828;SDS011;21042;47.620;12.188;2022-11-20T16:16:28;3.53;;;0.93;;
34828;SDS011;21042;47.620;12.188;2022-11-20T16:19:00;1.58;;;0.80;;
34828;SDS011;21042;47.620;12.188;2022-11-20T16:21:27;1.75;;;0.77;;
34828;SDS011;21042;47.620;12.188;2022-11-20T16:24:00;1.58;;;0.90;;
34828;SDS011;21042;47.620;12.188;2022-11-20T16:26:29;3.53;;;0.82;;
34828;SDS011;21042;47.620;12.188;2022-11-20T16:28:58;1.30;;;0.93;;
34828;SDS011;21042;47.620;12.188;2022-11-20T16:31:25;8.60;;;4.05;;
34828;SDS011;21042;47.620;12.188;2022-11-20T16:33:53;7.88;;;5.05;;
34828;SDS011;21042;47.620;12.188;2022-11-20T16:36:24;8.77;;;4.68;;
34828;SDS011;21042;47.620;12.188;2022-11-20T16:38:57;8.68;;;4.80;;
34828;SDS011;21042;47.620;12.188;2022-11-20T16:41:26;20.33;;;7.70;;
34828;SDS011;21042;47.620;12.188;2022-11-20T16:43:55;13.25;;;5.68;;
34828;SDS011;21042;47.620;12.188;2022-11-20T16:46:23;13.70;;;5.32;;
34828;SDS011;21042;47.620;12.188;2022-11-20T16:49:03;8.38;;;3.75;;
34828;SDS011;21042;47.620;12.188;2022-11-20T16:51:35;9.27;;;3.83;;
34828;SDS011;21042;47.620;12.188;2022-11-20T16:54:03;12.65;;;5.50;;
34828;SDS011;21042;47.620;12.188;2022-11-20T16:56:30;12.60;;;5.20;;
34828;SDS011;21042;47.620;12.188;2022-11-20T16:58:57;8.43;;;4.38;;